Time;durP1;ratioP1;P1;durP2;ratioP2;P2;SDS_P1;SDS_P2;PMS_P1;PMS_P2;Temp;Humidity;BMP_temperature;BMP_pressure;BME280_temperature;BME280_humidity;BME280_pressure;Samples;Min_cycle;Max_cycle;Signal;HPM_P1;HPM_P2
2023/01/19 00:00:09;;;;;;;17.25;9.13;;;-0.70;99.90;;;;;;5029743;28;20363;-82
2023/01/19 00:02:36;;;;;;;22.70;9.05;;;-0.80;99.90;;;;;;5032564;28;20080;-82
2023/01/19 00:05:02;;;;;;;20.17;8.88;;;-0.80;99.90;;;;;;5032894;28;20033;-82
2023/01/19 00:07:29;;;;;;;17.63;9.60;;;-0.90;99.90;;;;;;5027775;28;20027;-83
2023/01/19 00:09:55;;;;;;;15.60;7.93;;;-1.00;99.90;;;;;;5032801;28;20080;-83
2023/01/19 00:12:20;;;;;;;16.75;7.55;;;-1.00;99.90;;;;;;5032781;28;20083;-83
2023/01/19 00:14:46;;;;;;;17.58;8.05;;;-1.10;99.90;;;;;;5027945;28;20033;-82
2023/01/19 00:17:11;;;;;;;21.73;9.35;;;-1.20;99.90;;;;;;5034537;28;20036;-82
2023/01/19 00:19:37;;;;;;;20.25;8.55;;;-1.20;99.90;;;;;;5030201;28;20025;-82
2023/01/19 00:22:04;;;;;;;16.77;8.68;;;-1.20;99.90;;;;;;5033046;28;20051;-82
2023/01/19 00:24:30;;;;;;;16.35;8.82;;;-1.30;99.90;;;;;;5028849;28;20032;-82
2023/01/19 00:26:56;;;;;;;13.48;8.73;;;-1.30;99.90;;;;;;5038153;28;20021;-82
2023/01/19 00:29:22;;;;;;;14.13;7.45;;;-1.40;99.90;;;;;;5035683;28;20014;-82
2023/01/19 00:31:49;;;;;;;11.93;6.85;;;-1.50;99.90;;;;;;5024415;28;20017;-82
2023/01/19 00:34:14;;;;;;;13.05;8.07;;;-1.50;99.90;;;;;;5032583;28;21302;-82
2023/01/19 00:36:40;;;;;;;19.67;8.40;;;-1.50;99.90;;;;;;5040011;28;20088;-82
2023/01/19 00:39:07;;;;;;;17.42;8.45;;;-1.40;99.90;;;;;;5032488;28;20041;-82
2023/01/19 00:44:16;;;;;;;14.98;7.95;;;-1.40;99.90;;;;;;5029078;28;20079;-82
2023/01/19 00:46:42;;;;;;;18.38;8.07;;;-1.40;99.90;;;;;;5038949;28;20478;-82
2023/01/19 00:49:07;;;;;;;22.05;9.13;;;-1.30;99.90;;;;;;5034206;28;20021;-83
2023/01/19 00:51:33;;;;;;;16.73;8.75;;;-1.30;99.90;;;;;;5027594;28;20026;-82
2023/01/19 00:54:03;;;;;;;19.27;8.32;;;-1.40;99.90;;;;;;5034905;28;20102;-82
2023/01/19 00:56:30;;;;;;;15.65;8.38;;;-1.40;99.90;;;;;;5030208;28;20052;-82
2023/01/19 00:58:56;;;;;;;19.60;9.15;;;-1.40;99.90;;;;;;5025564;28;20033;-82
2023/01/19 01:01:21;;;;;;;17.33;9.63;;;-1.40;99.90;;;;;;5035011;28;20062;-82
2023/01/19 01:03:47;;;;;;;14.52;8.45;;;-1.40;99.90;;;;;;5036477;28;20030;-83
2023/01/19 01:06:12;;;;;;;11.82;7.47;;;-1.50;99.90;;;;;;5039319;28;20021;-82
2023/01/19 01:08:38;;;;;;;17.00;8.00;;;-1.60;99.90;;;;;;5025560;28;20040;-82
2023/01/19 01:11:04;;;;;;;14.68;8.70;;;-1.60;99.90;;;;;;5037300;28;20131;-83
2023/01/19 01:13:29;;;;;;;15.07;7.85;;;-1.60;99.90;;;;;;5041632;28;20056;-82
2023/01/19 01:15:56;;;;;;;12.13;7.93;;;-1.60;99.90;;;;;;5040503;28;20025;-82
2023/01/19 01:18:21;;;;;;;17.27;9.02;;;-1.60;99.90;;;;;;5036791;28;20050;-83
2023/01/19 01:20:47;;;;;;;16.45;9.18;;;-1.50;99.90;;;;;;5043323;28;20391;-82
2023/01/19 01:23:13;;;;;;;15.48;8.98;;;-1.50;99.90;;;;;;5026445;28;20277;-82
2023/01/19 01:25:38;;;;;;;17.85;8.30;;;-1.60;99.90;;;;;;5038476;28;20350;-82
2023/01/19 01:28:07;;;;;;;24.70;8.10;;;-1.60;99.90;;;;;;5033525;28;20040;-84
2023/01/19 01:30:34;;;;;;;16.40;8.07;;;-1.60;99.90;;;;;;5034855;28;20032;-82
2023/01/19 01:33:00;;;;;;;14.38;7.88;;;-1.60;99.90;;;;;;5033508;28;20108;-82
2023/01/19 01:35:26;;;;;;;15.02;8.65;;;-1.70;99.90;;;;;;5037366;28;20025;-82
2023/01/19 01:37:51;;;;;;;12.43;7.50;;;-1.70;99.90;;;;;;5036356;28;20094;-82
2023/01/19 01:40:19;;;;;;;17.48;8.88;;;-1.70;99.90;;;;;;5041932;28;20086;-82
2023/01/19 01:42:45;;;;;;;33.10;8.38;;;-1.60;99.90;;;;;;5035580;28;20061;-82
2023/01/19 01:45:34;;;;;;;15.07;8.18;;;-1.50;99.90;;;;;;5029679;28;20075;-82
2023/01/19 01:48:08;;;;;;;14.90;7.60;;;-1.60;99.90;;;;;;5026895;28;20029;-82
2023/01/19 01:51:22;;;;;;;15.43;7.63;;;-1.60;99.90;;;;;;5017103;28;20029;-82
2023/01/19 01:53:25;;;;;;;14.20;7.63;;;-1.60;99.90;;;;;;5032983;28;20449;-82
2023/01/19 01:55:51;;;;;;;14.80;6.20;;;-1.50;99.90;;;;;;5027453;28;20037;-83
2023/01/19 01:58:16;;;;;;;15.38;6.90;;;-1.50;99.90;;;;;;5032842;28;20053;-82
2023/01/19 02:03:27;;;;;;;16.45;6.55;;;-1.10;99.90;;;;;;5033383;28;20028;-82
2023/01/19 02:05:58;;;;;;;13.70;6.40;;;-0.90;99.90;;;;;;5034474;28;20021;-82
2023/01/19 02:14:09;;;;;;;19.38;7.18;;;-0.40;99.90;;;;;;5027149;28;20032;-81
2023/01/19 02:16:36;;;;;;;14.00;6.30;;;-0.30;99.90;;;;;;5034396;28;20030;-82
2023/01/19 02:19:02;;;;;;;14.32;6.38;;;-0.30;99.90;;;;;;5032418;28;20028;-82
2023/01/19 02:22:04;;;;;;;9.52;5.20;;;-0.10;99.90;;;;;;5023702;28;20102;-82
2023/01/19 02:24:30;;;;;;;10.80;6.13;;;-0.10;99.90;;;;;;5024242;28;20160;-82
2023/01/19 02:26:57;;;;;;;15.07;5.13;;;0.00;99.90;;;;;;5026595;28;20044;-83
2023/01/19 02:29:25;;;;;;;11.18;5.75;;;0.00;99.90;;;;;;5034888;28;20025;-82
2023/01/19 02:31:51;;;;;;;14.50;5.60;;;0.10;99.90;;;;;;5023858;28;20017;-83
2023/01/19 02:34:19;;;;;;;16.02;5.60;;;0.20;99.90;;;;;;5029655;28;20102;-84
2023/01/19 02:37:00;;;;;;;16.20;6.55;;;0.30;99.90;;;;;;5026029;28;20060;-83
2023/01/19 02:39:49;;;;;;;17.60;5.53;;;0.30;99.90;;;;;;5039270;28;20029;-82
2023/01/19 02:42:23;;;;;;;17.25;5.78;;;0.30;99.90;;;;;;5021610;28;20040;-82
2023/01/19 02:44:53;;;;;;;10.70;5.60;;;0.30;99.90;;;;;;5033648;28;20045;-83
2023/01/19 02:47:18;;;;;;;25.17;6.70;;;0.20;99.90;;;;;;5034146;28;20116;-82
2023/01/19 02:49:53;;;;;;;9.80;6.03;;;0.20;99.90;;;;;;5042992;28;20608;-83
2023/01/19 02:52:18;;;;;;;15.45;7.00;;;0.20;99.90;;;;;;5038774;28;20021;-82
2023/01/19 02:55:15;;;;;;;15.02;7.25;;;0.10;99.90;;;;;;5041477;28;20078;-82
2023/01/19 02:57:55;;;;;;;13.95;6.55;;;0.20;99.90;;;;;;5039103;28;20052;-82
2023/01/19 03:00:33;;;;;;;22.17;8.05;;;0.10;99.90;;;;;;5045307;28;20067;-84
2023/01/19 03:03:19;;;;;;;20.25;9.63;;;0.10;99.90;;;;;;5032717;28;20041;-82
2023/01/19 03:05:44;;;;;;;14.23;7.53;;;0.10;99.90;;;;;;5027723;28;20048;-83
2023/01/19 03:08:39;;;;;;;11.23;7.15;;;0.10;99.90;;;;;;5031966;28;20040;-82
2023/01/19 03:11:08;;;;;;;16.52;6.72;;;0.10;99.90;;;;;;5030505;28;20025;-84
2023/01/19 03:14:07;;;;;;;17.83;6.93;;;0.00;99.90;;;;;;5038181;28;20036;-82
2023/01/19 03:16:36;;;;;;;17.92;9.15;;;0.00;99.90;;;;;;5036098;28;20287;-82
2023/01/19 03:19:14;;;;;;;15.05;8.27;;;0.00;99.90;;;;;;5023014;28;20033;-82
2023/01/19 03:21:44;;;;;;;27.52;9.75;;;0.00;99.90;;;;;;5025551;28;20136;-83
2023/01/19 03:24:12;;;;;;;20.77;8.68;;;0.10;99.90;;;;;;5024620;28;20507;-81
2023/01/19 03:26:46;;;;;;;21.17;7.30;;;0.00;99.90;;;;;;5028782;28;20075;-84
2023/01/19 03:29:12;;;;;;;14.25;9.23;;;0.00;99.90;;;;;;5029439;28;20478;-82
2023/01/19 03:31:42;;;;;;;13.75;8.00;;;0.00;99.90;;;;;;5034819;28;20415;-81
2023/01/19 03:34:12;;;;;;;16.02;6.90;;;0.00;99.90;;;;;;5033248;28;20021;-83
2023/01/19 03:36:52;;;;;;;11.50;6.90;;;0.00;99.90;;;;;;5033183;28;20530;-83
2023/01/19 03:39:23;;;;;;;20.70;8.02;;;0.00;99.90;;;;;;5025445;28;20331;-81
2023/01/19 03:41:53;;;;;;;16.90;8.00;;;-0.10;99.90;;;;;;5021070;28;20038;-82
2023/01/19 03:44:19;;;;;;;14.30;7.82;;;-0.10;99.90;;;;;;5029316;28;20040;-84
2023/01/19 03:46:46;;;;;;;17.73;7.35;;;-0.10;99.90;;;;;;5027162;28;20037;-83
2023/01/19 03:49:12;;;;;;;21.40;8.65;;;-0.10;99.90;;;;;;5036447;28;20013;-82
2023/01/19 03:51:39;;;;;;;21.35;7.82;;;-0.10;99.90;;;;;;5032849;28;20029;-81
2023/01/19 03:54:06;;;;;;;16.77;7.78;;;0.00;99.90;;;;;;5021624;28;20433;-82
2023/01/19 03:56:32;;;;;;;18.27;7.65;;;0.00;99.90;;;;;;5033868;28;20029;-82
2023/01/19 03:58:58;;;;;;;12.32;6.95;;;0.00;99.90;;;;;;5035025;28;20030;-82
2023/01/19 04:01:23;;;;;;;14.80;7.78;;;0.00;99.90;;;;;;5032268;28;20021;-82
2023/01/19 04:03:50;;;;;;;15.63;8.27;;;0.00;99.90;;;;;;5040305;28;20033;-82
2023/01/19 04:06:17;;;;;;;13.82;7.95;;;0.00;99.90;;;;;;5031782;28;20018;-82
2023/01/19 04:08:42;;;;;;;15.85;7.63;;;0.00;99.90;;;;;;5034597;28;20033;-82
2023/01/19 04:11:08;;;;;;;19.08;8.18;;;0.00;99.90;;;;;;5026103;28;20267;-83
2023/01/19 04:13:34;;;;;;;14.55;7.80;;;0.00;99.90;;;;;;5033041;28;20443;-82
2023/01/19 04:16:01;;;;;;;16.23;7.50;;;0.00;99.90;;;;;;5039220;28;20079;-82
2023/01/19 04:18:28;;;;;;;17.00;8.27;;;0.00;99.90;;;;;;5029533;28;20513;-83
2023/01/19 04:20:54;;;;;;;18.10;7.35;;;0.00;99.90;;;;;;5029198;28;20030;-82
2023/01/19 04:23:19;;;;;;;13.10;6.13;;;0.00;99.90;;;;;;5027830;28;20033;-83
2023/01/19 04:25:45;;;;;;;17.73;7.65;;;0.00;99.90;;;;;;5029982;28;20284;-82
2023/01/19 04:28:14;;;;;;;17.65;9.02;;;0.00;99.90;;;;;;5038218;28;20032;-82
2023/01/19 04:30:40;;;;;;;28.48;8.50;;;0.00;99.90;;;;;;5030881;28;20111;-82
2023/01/19 04:33:05;;;;;;;15.40;7.32;;;0.00;99.90;;;;;;5033038;28;20481;-82
2023/01/19 04:35:33;;;;;;;11.75;6.95;;;0.10;99.90;;;;;;5026107;28;20021;-82
2023/01/19 04:38:01;;;;;;;11.27;7.07;;;0.00;99.90;;;;;;5021961;28;20079;-82
2023/01/19 04:40:27;;;;;;;9.77;6.63;;;0.10;99.90;;;;;;5033346;28;20442;-82
2023/01/19 04:42:53;;;;;;;19.02;7.75;;;0.10;99.90;;;;;;5032581;28;20021;-82
2023/01/19 04:45:18;;;;;;;11.90;6.55;;;0.00;99.90;;;;;;5034285;28;20028;-82
2023/01/19 04:47:44;;;;;;;12.75;6.15;;;0.00;99.90;;;;;;5032576;28;20021;-82
2023/01/19 04:50:14;;;;;;;18.63;7.13;;;0.00;99.90;;;;;;5032512;28;20102;-82
2023/01/19 04:52:42;;;;;;;11.77;7.00;;;0.00;99.90;;;;;;5036848;28;20074;-82
2023/01/19 04:55:09;;;;;;;13.13;6.45;;;0.00;99.90;;;;;;5034666;28;20052;-82
2023/01/19 04:57:34;;;;;;;11.45;6.60;;;0.00;99.90;;;;;;5024356;28;20053;-82
2023/01/19 05:00:00;;;;;;;15.40;6.03;;;0.10;99.90;;;;;;5038751;28;20465;-81
2023/01/19 05:02:26;;;;;;;12.43;5.97;;;0.20;99.90;;;;;;5039301;28;20028;-82
2023/01/19 05:04:52;;;;;;;18.10;6.93;;;0.30;99.90;;;;;;5036554;28;20021;-82
2023/01/19 05:07:17;;;;;;;9.23;5.90;;;0.30;99.90;;;;;;5036428;28;20045;-84
2023/01/19 05:09:43;;;;;;;17.30;7.20;;;0.30;99.90;;;;;;5042384;28;20025;-81
2023/01/19 05:12:08;;;;;;;15.07;6.70;;;0.30;99.90;;;;;;5025781;28;20141;-85
2023/01/19 05:14:34;;;;;;;14.15;7.25;;;0.30;99.90;;;;;;5028712;28;20021;-82
2023/01/19 05:17:02;;;;;;;14.95;7.72;;;0.30;99.90;;;;;;5028482;28;20041;-83
2023/01/19 05:19:27;;;;;;;15.45;7.15;;;0.30;99.90;;;;;;5024956;28;20072;-82
2023/01/19 05:21:53;;;;;;;15.75;6.82;;;0.20;99.90;;;;;;5039837;28;20033;-84
2023/01/19 05:24:19;;;;;;;14.25;6.68;;;0.20;99.90;;;;;;5037841;28;20021;-82
2023/01/19 05:26:44;;;;;;;12.80;6.88;;;0.20;99.90;;;;;;5033754;28;20622;-83
2023/01/19 05:29:13;;;;;;;10.88;5.85;;;0.20;99.90;;;;;;5027169;28;20064;-82
2023/01/19 05:31:41;;;;;;;12.73;7.20;;;0.20;99.90;;;;;;5035721;28;20029;-83
2023/01/19 05:34:10;;;;;;;21.95;8.30;;;0.20;99.90;;;;;;5029922;28;20336;-83
2023/01/19 05:36:36;;;;;;;15.88;7.95;;;0.10;99.90;;;;;;5031605;28;20427;-83
2023/01/19 05:39:02;;;;;;;15.88;9.50;;;0.10;99.90;;;;;;5033696;28;20021;-85
2023/01/19 05:41:30;;;;;;;14.95;8.95;;;0.10;99.90;;;;;;5019441;28;20438;-86
2023/01/19 05:43:56;;;;;;;17.00;8.57;;;0.10;99.90;;;;;;5016691;28;20021;-84
2023/01/19 05:46:23;;;;;;;19.58;8.85;;;0.00;99.90;;;;;;5020927;28;20032;-85
2023/01/19 05:48:49;;;;;;;18.13;9.05;;;0.00;99.90;;;;;;5021617;28;20131;-85
2023/01/19 05:51:14;;;;;;;18.65;9.07;;;0.00;99.90;;;;;;5026818;28;20362;-84
2023/01/19 05:53:40;;;;;;;17.20;9.15;;;0.00;99.90;;;;;;5027388;28;20024;-85
2023/01/19 05:56:08;;;;;;;16.85;8.77;;;0.00;99.90;;;;;;5022081;28;20434;-88
2023/01/19 05:58:35;;;;;;;17.67;10.18;;;0.00;99.90;;;;;;5037300;28;20048;-84
2023/01/19 06:01:04;;;;;;;16.20;9.23;;;0.00;99.90;;;;;;5022114;28;20355;-84
2023/01/19 06:03:32;;;;;;;15.25;8.57;;;0.00;99.90;;;;;;5024214;28;20071;-85
2023/01/19 06:05:58;;;;;;;18.52;10.88;;;0.00;99.90;;;;;;5026055;28;20028;-83
2023/01/19 06:08:24;;;;;;;23.63;11.13;;;0.00;99.90;;;;;;5025182;28;20034;-86
2023/01/19 06:10:51;;;;;;;18.17;9.93;;;-0.10;99.90;;;;;;5022806;28;20366;-84
2023/01/19 06:13:16;;;;;;;22.38;10.82;;;-0.10;99.90;;;;;;5027065;28;20048;-84
2023/01/19 06:15:43;;;;;;;20.40;9.80;;;-0.10;99.90;;;;;;5027283;28;20025;-83
2023/01/19 06:18:13;;;;;;;18.77;10.40;;;0.00;99.90;;;;;;5037486;28;20512;-83
2023/01/19 06:20:39;;;;;;;13.20;8.50;;;0.00;99.90;;;;;;5027851;28;20416;-83
2023/01/19 06:23:05;;;;;;;16.05;9.02;;;-0.10;99.90;;;;;;5045095;28;20029;-84
2023/01/19 06:25:30;;;;;;;17.75;10.27;;;-0.10;99.90;;;;;;5047929;28;20058;-84
2023/01/19 06:27:56;;;;;;;22.02;10.75;;;-0.10;99.90;;;;;;5038174;28;20373;-85
2023/01/19 06:30:22;;;;;;;15.90;10.68;;;-0.10;99.90;;;;;;5026602;28;20022;-85
2023/01/19 06:32:47;;;;;;;24.02;11.50;;;-0.10;99.90;;;;;;5035427;28;20406;-84
2023/01/19 06:35:13;;;;;;;17.73;10.82;;;-0.10;99.90;;;;;;5038355;28;20029;-85
2023/01/19 06:37:39;;;;;;;17.77;10.15;;;-0.10;99.90;;;;;;5042760;28;20119;-84
2023/01/19 06:40:06;;;;;;;20.02;9.65;;;-0.10;99.90;;;;;;5045328;28;20037;-84
2023/01/19 06:42:33;;;;;;;20.75;10.20;;;-0.10;99.90;;;;;;5042144;28;20050;-82
2023/01/19 06:44:58;;;;;;;23.15;10.85;;;-0.10;99.90;;;;;;5020174;28;20107;-85
2023/01/19 06:47:24;;;;;;;19.80;10.85;;;-0.10;99.90;;;;;;5041093;28;20418;-81
2023/01/19 06:49:49;;;;;;;29.13;10.63;;;-0.10;99.90;;;;;;5031394;28;20541;-85
2023/01/19 06:52:16;;;;;;;27.10;11.65;;;-0.10;99.90;;;;;;5027294;28;20029;-82
2023/01/19 06:54:45;;;;;;;18.80;11.52;;;-0.10;99.90;;;;;;5031615;28;20108;-82
2023/01/19 06:57:11;;;;;;;24.20;12.20;;;-0.10;99.90;;;;;;5013701;28;20088;-84
2023/01/19 06:59:39;;;;;;;24.85;12.38;;;-0.10;99.90;;;;;;5038771;28;20034;-84
2023/01/19 07:02:05;;;;;;;26.35;13.40;;;0.00;99.90;;;;;;5036025;28;20029;-83
2023/01/19 07:04:32;;;;;;;21.88;12.50;;;-0.10;99.90;;;;;;5036479;28;20025;-85
2023/01/19 07:06:58;;;;;;;25.27;12.88;;;-0.10;99.90;;;;;;5038832;28;20358;-85
2023/01/19 07:09:24;;;;;;;21.17;11.55;;;-0.10;99.90;;;;;;5042592;28;20052;-84
2023/01/19 07:11:50;;;;;;;21.80;11.68;;;-0.10;99.90;;;;;;5035489;28;20025;-82
2023/01/19 07:14:15;;;;;;;38.10;12.45;;;-0.20;99.90;;;;;;5039231;28;20020;-83
2023/01/19 07:16:41;;;;;;;28.00;12.23;;;-0.20;99.90;;;;;;5046459;28;20035;-84
2023/01/19 07:19:09;;;;;;;19.08;10.68;;;-0.20;99.90;;;;;;5045344;28;20028;-84
2023/01/19 07:21:35;;;;;;;21.70;12.23;;;-0.20;99.90;;;;;;5037460;28;20025;-83
2023/01/19 07:24:01;;;;;;;24.45;12.13;;;-0.10;99.90;;;;;;5030116;28;20059;-84
2023/01/19 07:26:26;;;;;;;22.90;11.45;;;-0.20;99.90;;;;;;5044198;28;20024;-83
2023/01/19 07:28:52;;;;;;;20.20;11.85;;;-0.10;99.90;;;;;;5047647;28;20032;-83
2023/01/19 07:31:18;;;;;;;18.98;10.63;;;-0.10;99.90;;;;;;5031766;28;20025;-84
2023/01/19 07:33:44;;;;;;;18.48;9.45;;;-0.10;99.90;;;;;;5038180;28;20139;-84
2023/01/19 07:36:10;;;;;;;21.02;11.35;;;-0.10;99.90;;;;;;5039226;28;20116;-83
2023/01/19 07:38:36;;;;;;;17.25;11.10;;;-0.10;99.90;;;;;;5039412;28;20127;-84
2023/01/19 07:41:03;;;;;;;18.92;10.98;;;-0.10;99.90;;;;;;5037039;28;20025;-87
2023/01/19 07:43:29;;;;;;;23.25;11.70;;;-0.10;99.90;;;;;;5039122;28;20029;-84
2023/01/19 07:45:55;;;;;;;21.23;10.90;;;-0.10;99.90;;;;;;5031002;28;20096;-84
2023/01/19 07:48:21;;;;;;;21.98;12.10;;;-0.10;99.90;;;;;;5032593;28;20032;-82
2023/01/19 07:50:47;;;;;;;20.85;11.18;;;-0.10;99.90;;;;;;5035252;28;20037;-83
2023/01/19 07:53:12;;;;;;;22.83;10.55;;;-0.10;99.90;;;;;;5037610;28;20033;-82
2023/01/19 07:55:38;;;;;;;22.45;10.90;;;-0.10;99.90;;;;;;5036262;28;20029;-82
2023/01/19 07:58:06;;;;;;;25.85;11.07;;;-0.10;99.90;;;;;;5036097;28;20056;-84
2023/01/19 08:00:32;;;;;;;26.25;11.90;;;-0.10;99.90;;;;;;5038441;28;20039;-83
2023/01/19 08:02:59;;;;;;;19.30;10.75;;;-0.10;99.90;;;;;;5037216;28;20027;-83
2023/01/19 08:05:25;;;;;;;27.23;11.77;;;-0.10;99.90;;;;;;5034086;28;20037;-81
2023/01/19 08:07:51;;;;;;;26.92;12.05;;;-0.10;99.90;;;;;;5037789;28;20108;-82
2023/01/19 08:10:17;;;;;;;21.73;10.75;;;-0.10;99.90;;;;;;5034355;28;20112;-82
2023/01/19 08:12:43;;;;;;;27.58;11.88;;;0.00;99.90;;;;;;5027179;28;20032;-82
2023/01/19 08:15:09;;;;;;;20.67;10.50;;;0.00;99.90;;;;;;5039041;28;20029;-82
2023/01/19 08:17:37;;;;;;;18.60;10.85;;;0.00;99.90;;;;;;5034278;28;20051;-82
2023/01/19 08:20:03;;;;;;;23.10;10.45;;;0.00;99.90;;;;;;5036964;28;20485;-83
2023/01/19 08:22:30;;;;;;;18.42;10.23;;;0.00;99.90;;;;;;5040734;28;20029;-83
2023/01/19 08:24:55;;;;;;;18.50;10.02;;;0.00;99.90;;;;;;5042121;28;20023;-84
2023/01/19 08:27:21;;;;;;;18.70;9.93;;;0.00;99.90;;;;;;5037635;28;20022;-82
2023/01/19 08:29:46;;;;;;;19.58;10.50;;;0.00;99.90;;;;;;5041197;28;20029;-83
2023/01/19 08:32:12;;;;;;;12.80;8.82;;;0.00;99.90;;;;;;5033579;28;20342;-82
2023/01/19 08:34:37;;;;;;;18.05;10.13;;;0.00;99.90;;;;;;5033927;28;20420;-82
2023/01/19 08:37:03;;;;;;;17.00;9.57;;;0.10;99.90;;;;;;5034480;28;20421;-82
2023/01/19 08:39:29;;;;;;;39.60;15.13;;;0.10;99.90;;;;;;5032806;28;20156;-82
2023/01/19 08:41:55;;;;;;;27.35;13.00;;;0.10;99.90;;;;;;5030567;28;20029;-82
2023/01/19 08:44:21;;;;;;;20.92;10.80;;;0.10;99.90;;;;;;5038813;28;20028;-82
2023/01/19 08:46:47;;;;;;;24.83;10.48;;;0.20;99.90;;;;;;5039182;28;20033;-82
2023/01/19 08:49:12;;;;;;;19.55;10.10;;;0.20;99.90;;;;;;5049179;28;20608;-82
2023/01/19 08:51:38;;;;;;;19.05;9.05;;;0.20;99.90;;;;;;5040950;28;20017;-82
2023/01/19 08:54:04;;;;;;;15.90;8.98;;;0.30;99.90;;;;;;5033047;28;20009;-82
2023/01/19 08:56:29;;;;;;;15.77;9.20;;;0.30;99.90;;;;;;5038916;28;20087;-83
2023/01/19 08:58:55;;;;;;;16.63;8.88;;;0.30;99.90;;;;;;5038947;28;20055;-82
2023/01/19 09:01:21;;;;;;;17.77;8.02;;;0.40;99.90;;;;;;5036634;28;20048;-82
2023/01/19 09:03:47;;;;;;;17.83;8.85;;;0.40;99.90;;;;;;5049241;28;20024;-82
2023/01/19 09:06:15;;;;;;;18.38;9.93;;;0.40;99.90;;;;;;5048656;28;20025;-82
2023/01/19 09:08:42;;;;;;;18.38;9.23;;;0.50;99.90;;;;;;5047951;28;20021;-83
2023/01/19 09:11:12;;;;;;;17.10;9.27;;;0.60;99.90;;;;;;5043692;28;20017;-82
2023/01/19 09:13:38;;;;;;;17.65;9.50;;;0.60;99.90;;;;;;5046975;28;20070;-83
2023/01/19 09:16:07;;;;;;;22.73;11.18;;;0.70;99.90;;;;;;5037937;28;20035;-82
2023/01/19 09:18:34;;;;;;;21.10;10.10;;;0.70;99.90;;;;;;5045978;28;20044;-82
2023/01/19 09:21:01;;;;;;;20.85;10.02;;;0.80;99.90;;;;;;5046420;28;20120;-81
2023/01/19 09:23:27;;;;;;;19.13;11.18;;;0.70;99.90;;;;;;5041301;28;20032;-82
2023/01/19 09:25:58;;;;;;;23.92;10.45;;;0.70;99.90;;;;;;5032041;28;20373;-81
2023/01/19 09:28:26;;;;;;;26.30;11.70;;;0.70;99.90;;;;;;5048701;28;20159;-82
2023/01/19 09:30:51;;;;;;;24.00;11.20;;;0.80;99.90;;;;;;5042025;28;20040;-82
2023/01/19 09:33:18;;;;;;;23.35;11.65;;;0.80;99.90;;;;;;5033493;28;20108;-82
2023/01/19 09:35:46;;;;;;;27.30;11.13;;;0.80;99.90;;;;;;5039111;28;20122;-82
2023/01/19 09:38:14;;;;;;;18.27;11.07;;;0.80;99.90;;;;;;5034852;28;20075;-82
2023/01/19 09:40:48;;;;;;;18.75;10.52;;;0.80;99.90;;;;;;5037886;28;20052;-83
2023/01/19 09:43:35;;;;;;;20.27;10.65;;;0.90;99.90;;;;;;5035680;28;20493;-82
2023/01/19 09:46:17;;;;;;;20.17;10.18;;;0.90;99.90;;;;;;5029358;28;20047;-82
2023/01/19 09:48:47;;;;;;;15.05;10.05;;;0.90;99.90;;;;;;5038259;28;20055;-82
2023/01/19 09:51:23;;;;;;;22.23;11.57;;;0.90;99.90;;;;;;5038733;28;20045;-83
2023/01/19 09:53:55;;;;;;;25.98;11.52;;;0.90;99.90;;;;;;5035313;28;20137;-83
2023/01/19 09:56:22;;;;;;;20.77;10.77;;;0.90;99.90;;;;;;5032038;28;20045;-82
2023/01/19 09:58:51;;;;;;;20.48;11.20;;;1.00;99.90;;;;;;5037851;28;20123;-83
2023/01/19 10:01:22;;;;;;;15.52;9.77;;;1.10;99.90;;;;;;5037109;28;20030;-82
2023/01/19 10:03:58;;;;;;;22.25;10.82;;;1.00;99.90;;;;;;5037708;28;20025;-83
2023/01/19 10:06:24;;;;;;;17.92;10.57;;;1.10;99.90;;;;;;5031221;28;20021;-82
2023/01/19 10:08:58;;;;;;;18.70;10.25;;;1.10;99.90;;;;;;5041726;28;20029;-82
2023/01/19 10:11:41;;;;;;;21.43;11.63;;;1.10;99.90;;;;;;5038205;28;20025;-82
2023/01/19 10:14:19;;;;;;;26.70;11.02;;;1.20;99.90;;;;;;5046646;28;20054;-83
2023/01/19 10:16:58;;;;;;;20.17;10.13;;;1.30;99.90;;;;;;5035480;28;20057;-82
2023/01/19 10:19:36;;;;;;;17.42;10.65;;;1.30;99.90;;;;;;5029305;28;20059;-83
2023/01/19 10:22:18;;;;;;;17.77;9.07;;;1.30;99.90;;;;;;5031126;28;20104;-82
2023/01/19 10:24:44;;;;;;;19.80;10.18;;;1.30;99.90;;;;;;5027023;28;20029;-83
2023/01/19 10:27:16;;;;;;;14.88;8.93;;;1.30;99.90;;;;;;5033494;28;20042;-83
2023/01/19 10:29:44;;;;;;;20.50;11.90;;;1.40;99.90;;;;;;5026870;28;20073;-83
2023/01/19 10:32:25;;;;;;;17.55;9.68;;;1.40;99.90;;;;;;5028473;28;20433;-83
2023/01/19 10:34:52;;;;;;;22.92;11.70;;;1.40;99.90;;;;;;5034378;28;20033;-83
2023/01/19 10:37:44;;;;;;;19.75;10.77;;;1.40;99.90;;;;;;5025254;28;20056;-83
2023/01/19 10:40:09;;;;;;;17.17;10.23;;;1.50;99.90;;;;;;5031700;28;20026;-84
2023/01/19 10:42:37;;;;;;;22.23;11.13;;;1.60;99.90;;;;;;5037134;28;20094;-82
2023/01/19 10:45:14;;;;;;;14.95;9.55;;;1.70;99.90;;;;;;5034724;28;20358;-82
2023/01/19 10:47:40;;;;;;;20.13;11.05;;;1.70;99.90;;;;;;5033362;28;20026;-82
2023/01/19 10:50:21;;;;;;;24.13;11.43;;;1.70;99.90;;;;;;5035382;28;20112;-82
2023/01/19 10:52:51;;;;;;;21.13;9.85;;;1.70;99.90;;;;;;5038891;28;20025;-82
2023/01/19 10:55:37;;;;;;;21.90;10.98;;;1.70;99.90;;;;;;5027425;28;20163;-82
2023/01/19 10:58:04;;;;;;;20.73;10.93;;;1.70;99.90;;;;;;5025329;28;20041;-83
2023/01/19 11:00:39;;;;;;;16.98;9.90;;;1.70;99.90;;;;;;5029101;28;20033;-83
2023/01/19 11:03:23;;;;;;;20.67;10.82;;;1.70;99.90;;;;;;5030501;28;20029;-84
2023/01/19 11:05:50;;;;;;;21.35;11.00;;;1.80;99.90;;;;;;5033824;28;20033;-82
2023/01/19 11:08:31;;;;;;;28.52;12.75;;;1.80;99.90;;;;;;5035136;28;20314;-83
2023/01/19 11:11:03;;;;;;;17.88;11.52;;;1.80;99.90;;;;;;5040380;28;20083;-82
2023/01/19 11:13:30;;;;;;;25.75;11.95;;;1.80;99.90;;;;;;5029061;28;20029;-83
2023/01/19 11:15:57;;;;;;;20.63;11.80;;;1.80;99.90;;;;;;5034098;28;20030;-83
2023/01/19 11:18:28;;;;;;;21.52;11.45;;;1.80;99.90;;;;;;5034404;28;20114;-82
2023/01/19 11:20:56;;;;;;;17.73;10.57;;;1.80;99.90;;;;;;5028013;28;20026;-82
2023/01/19 11:23:25;;;;;;;27.40;11.15;;;1.80;99.90;;;;;;5039693;28;20017;-82
2023/01/19 11:25:52;;;;;;;26.83;12.10;;;1.80;99.90;;;;;;5035716;28;20060;-82
2023/01/19 11:28:38;;;;;;;21.60;10.68;;;1.90;99.90;;;;;;5037245;28;20064;-83
2023/01/19 11:31:10;;;;;;;20.48;9.55;;;1.90;99.90;;;;;;5035663;28;20025;-83
2023/01/19 11:33:38;;;;;;;16.58;10.38;;;1.90;99.90;;;;;;5033142;28;20461;-83
2023/01/19 11:36:16;;;;;;;24.25;10.38;;;1.90;99.90;;;;;;5037870;28;20025;-82
2023/01/19 11:38:44;;;;;;;21.13;11.00;;;1.90;99.90;;;;;;5024493;28;20115;-82
2023/01/19 11:41:30;;;;;;;19.08;10.73;;;2.00;99.90;;;;;;5040555;28;20371;-83
2023/01/19 11:44:01;;;;;;;16.13;9.90;;;2.00;99.90;;;;;;5047986;28;20540;-83
2023/01/19 11:46:32;;;;;;;18.25;10.32;;;2.00;99.90;;;;;;5044319;28;20036;-83
2023/01/19 11:49:11;;;;;;;20.45;10.13;;;2.10;99.90;;;;;;5030695;28;20076;-83
2023/01/19 11:52:19;;;;;;;14.98;9.52;;;2.20;99.90;;;;;;5037513;28;20037;-83
2023/01/19 11:55:13;;;;;;;16.83;10.18;;;2.20;99.90;;;;;;5042912;28;20025;-83
2023/01/19 11:57:47;;;;;;;22.08;9.10;;;2.20;99.90;;;;;;5035852;28;20053;-83
2023/01/19 12:00:24;;;;;;;11.43;8.77;;;2.30;99.90;;;;;;5038137;28;20044;-82
2023/01/19 12:03:09;;;;;;;18.30;7.72;;;2.20;99.90;;;;;;5032174;28;20041;-84
2023/01/19 12:05:37;;;;;;;9.95;7.57;;;2.20;99.90;;;;;;5032299;28;20029;-83
2023/01/19 12:08:11;;;;;;;12.20;7.50;;;2.30;99.90;;;;;;5029757;28;20037;-84
2023/01/19 12:10:41;;;;;;;12.13;7.07;;;2.30;99.90;;;;;;5034729;28;20029;-84
2023/01/19 12:13:19;;;;;;;12.93;7.60;;;2.20;99.90;;;;;;5029429;28;20030;-84
2023/01/19 12:15:46;;;;;;;11.02;6.57;;;2.30;99.90;;;;;;5025596;28;20025;-85
2023/01/19 12:18:18;;;;;;;10.18;7.07;;;2.30;99.90;;;;;;5028190;28;20133;-86
2023/01/19 12:20:50;;;;;;;13.82;7.32;;;2.20;99.90;;;;;;5031980;28;20079;-85
2023/01/19 12:23:46;;;;;;;12.15;7.25;;;2.20;99.90;;;;;;5036070;28;20033;-83
2023/01/19 12:26:40;;;;;;;10.10;5.93;;;2.20;99.90;;;;;;5018079;28;20029;-84
2023/01/19 12:29:11;;;;;;;19.88;8.10;;;2.20;99.90;;;;;;5025708;28;20075;-84
2023/01/19 12:31:39;;;;;;;10.32;6.15;;;2.10;99.90;;;;;;5031095;28;20030;-86
2023/01/19 12:34:30;;;;;;;11.00;6.93;;;2.10;99.90;;;;;;5035483;28;20056;-84
2023/01/19 12:37:05;;;;;;;9.73;6.45;;;2.10;99.90;;;;;;5022112;28;20552;-84
2023/01/19 12:39:32;;;;;;;9.10;6.35;;;2.10;99.90;;;;;;5028344;28;20355;-83
2023/01/19 12:42:10;;;;;;;10.68;6.22;;;2.00;99.90;;;;;;5024189;28;20033;-83
2023/01/19 12:44:38;;;;;;;7.47;5.63;;;1.90;99.90;;;;;;5016771;28;20276;-84
2023/01/19 12:47:11;;;;;;;9.93;6.18;;;1.90;99.90;;;;;;5019533;28;20550;-84
2023/01/19 12:49:37;;;;;;;9.43;6.93;;;2.00;99.90;;;;;;5019838;28;20128;-83
2023/01/19 12:52:28;;;;;;;11.10;6.50;;;2.00;99.90;;;;;;5027049;28;20112;-83
2023/01/19 12:55:06;;;;;;;12.23;5.93;;;2.00;99.90;;;;;;5031719;28;20034;-83
2023/01/19 12:58:07;;;;;;;8.45;5.93;;;2.00;99.90;;;;;;5023010;28;20049;-84
2023/01/19 13:00:38;;;;;;;8.52;6.28;;;2.00;99.90;;;;;;5023388;28;20057;-84
2023/01/19 13:03:24;;;;;;;8.57;6.07;;;2.10;99.90;;;;;;5015490;28;20454;-86